Time;durP1;ratioP1;P1;durP2;ratioP2;P2;SDS_P1;SDS_P2;PMS_P1;PMS_P2;Temp;Humidity;BMP_temperature;BMP_pressure;BME280_temperature;BME280_humidity;BME280_pressure;Samples;Min_cycle;Max_cycle;Signal;HPM_P1;HPM_P2
2022/04/20 00:00:20;;;;;;;4.17;2.97;;;;;;;8.34;nan;98948.97;5025490;28;20489;-74
2022/04/20 00:02:46;;;;;;;2.80;2.60;;;;;;;8.30;nan;98948.34;5025836;28;20560;-76
2022/04/20 00:05:12;;;;;;;3.17;2.78;;;;;;;8.29;nan;98943.19;5025170;28;20206;-75
2022/04/20 00:07:38;;;;;;;5.27;3.17;;;;;;;8.28;nan;98944.97;5025631;28;20202;-73
2022/04/20 00:10:05;;;;;;;3.37;3.00;;;;;;;8.30;nan;98948.34;5025517;28;20898;-75
2022/04/20 00:12:30;;;;;;;2.80;2.58;;;;;;;8.33;nan;98944.69;5025188;28;20248;-75
2022/04/20 00:14:55;;;;;;;3.43;3.13;;;;;;;8.32;nan;98951.72;5024965;28;20289;-75
2022/04/20 00:17:21;;;;;;;2.67;2.47;;;;;;;8.33;nan;98942.91;5025341;28;20226;-74
2022/04/20 00:19:46;;;;;;;4.63;3.07;;;;;;;8.32;nan;98951.72;5026194;28;20202;-75
2022/04/20 00:22:12;;;;;;;4.07;3.30;;;;;;;8.31;nan;98949.19;5025445;28;20202;-75
2022/04/20 00:24:37;;;;;;;3.20;2.90;;;;;;;8.31;nan;98955.25;5025368;28;20214;-74
2022/04/20 00:27:03;;;;;;;5.20;2.97;;;;;;;8.27;nan;98956.41;5022260;28;20917;-76
2022/04/20 00:29:28;;;;;;;3.47;3.17;;;;;;;8.22;nan;98952.41;5022798;28;20630;-74
2022/04/20 00:31:54;;;;;;;4.43;2.70;;;;;;;8.20;nan;98950.72;5022469;28;20501;-75
2022/04/20 00:34:19;;;;;;;3.13;2.50;;;;;;;8.19;nan;98958.66;5024627;28;20476;-76
2022/04/20 00:36:45;;;;;;;4.30;3.37;;;;;;;8.17;nan;98957.91;5025528;28;20244;-75
2022/04/20 00:39:10;;;;;;;2.53;2.20;;;;;;;8.16;nan;98957.09;5024690;28;20257;-75
2022/04/20 00:41:36;;;;;;;3.63;2.80;;;;;;;8.13;nan;98957.28;5023529;28;20212;-76
2022/04/20 00:44:02;;;;;;;4.30;3.37;;;;;;;8.12;nan;98950.34;5023248;28;20590;-75
2022/04/20 00:46:28;;;;;;;2.67;2.42;;;;;;;8.07;nan;98947.19;5023177;28;20305;-73
2022/04/20 00:48:56;;;;;;;3.60;2.67;;;;;;;8.01;nan;98952.81;5024898;28;20285;-76
2022/04/20 00:51:22;;;;;;;2.75;2.55;;;;;;;7.96;nan;98954.88;5022319;28;20497;-76
2022/04/20 00:53:49;;;;;;;2.65;2.45;;;;;;;7.93;nan;98955.91;5039214;28;20650;-73
2022/04/20 00:56:16;;;;;;;4.25;2.53;;;;;;;7.98;nan;98945.19;5023307;28;20596;-75
2022/04/20 00:58:43;;;;;;;3.53;2.67;;;;;;;8.06;nan;98944.69;5022345;28;20309;-75
2022/04/20 01:01:09;;;;;;;2.70;2.50;;;;;;;8.16;nan;98941.41;5023591;28;20509;-75
2022/04/20 01:03:35;;;;;;;2.57;2.37;;;;;;;8.30;nan;98944.91;5022862;28;20234;-75
2022/04/20 01:06:26;;;;;;;2.35;2.17;;;;;;;8.56;nan;98940.59;5001297;28;20551;-76
2022/04/20 01:08:57;;;;;;;1.90;1.80;;;;;;;8.78;nan;98948.72;5024157;28;20221;-75
2022/04/20 01:11:50;;;;;;;4.20;3.75;;;;;;;8.94;nan;98947.66;5018252;28;20244;-76
2022/04/20 01:14:34;;;;;;;2.92;2.00;;;;;;;9.05;nan;98942.56;5022476;28;20355;-75
2022/04/20 01:17:29;;;;;;;2.60;2.40;;;;;;;9.07;nan;98941.53;5014292;28;20737;-76
2022/04/20 01:20:02;;;;;;;4.15;2.75;;;;;;;9.02;nan;98942.78;5022748;28;20212;-75
2022/04/20 01:22:46;;;;;;;3.00;2.50;;;;;;;9.00;nan;98942.03;5010481;28;20733;-76
2022/04/20 01:25:23;;;;;;;2.60;2.15;;;;;;;9.05;nan;98926.84;5023572;28;20271;-75
2022/04/20 01:28:05;;;;;;;4.22;2.22;;;;;;;9.19;nan;98925.91;5022990;28;20209;-75
2022/04/20 01:30:45;;;;;;;3.20;2.10;;;;;;;9.31;nan;98920.63;5022046;28;20304;-76
2022/04/20 01:33:18;;;;;;;3.22;2.20;;;;;;;9.49;nan;98923.75;5022415;28;20290;-76
2022/04/20 01:35:47;;;;;;;3.25;2.30;;;;;;;9.59;nan;98918.72;5022316;28;20459;-75
2022/04/20 01:38:13;;;;;;;2.73;2.53;;;;;;;9.58;nan;98921.44;5021555;28;20240;-75
2022/04/20 01:40:39;;;;;;;2.20;2.00;;;;;;;9.61;nan;98915.97;5023246;28;20224;-75
2022/04/20 01:43:04;;;;;;;3.57;1.60;;;;;;;9.64;nan;98921.00;5023847;28;20626;-75
2022/04/20 01:45:31;;;;;;;2.40;1.70;;;;;;;9.63;nan;98922.78;5038196;28;20210;-74
2022/04/20 01:48:28;;;;;;;2.17;1.98;;;;;;;9.55;nan;98916.41;4990235;28;20217;-73
2022/04/20 01:54:23;;;;;;;2.95;2.22;;;;;;;9.22;nan;98917.81;5028839;28;20311;-76
2022/04/20 01:56:53;;;;;;;2.20;2.08;;;;;;;9.01;nan;98915.72;5029658;28;20202;-76
2022/04/20 01:59:55;;;;;;;1.95;1.77;;;;;;;8.84;nan;98924.72;5028248;28;20248;-75
2022/04/20 02:02:39;;;;;;;5.03;2.17;;;;;;;8.63;nan;98928.78;5027704;28;20236;-76
2022/04/20 02:05:25;;;;;;;4.18;2.58;;;;;;;8.30;nan;98930.03;5029227;28;20249;-76
2022/04/20 02:08:05;;;;;;;3.00;2.30;;;;;;;8.00;nan;98929.41;5026261;28;20458;-76
2022/04/20 02:10:50;;;;;;;3.60;2.00;;;;;;;7.79;nan;98921.13;5028882;28;20567;-76
2022/04/20 02:13:16;;;;;;;2.50;2.03;;;;;;;7.65;nan;98933.28;5029197;28;20308;-76
2022/04/20 02:15:42;;;;;;;2.03;1.92;;;;;;;7.59;nan;98925.84;5028711;28;20560;-76
2022/04/20 02:18:27;;;;;;;3.00;2.70;;;;;;;7.56;nan;98923.44;5027524;28;20205;-76
2022/04/20 02:21:03;;;;;;;2.03;1.90;;;;;;;7.58;nan;98939.84;5043669;28;20190;-76
2022/04/20 02:23:29;;;;;;;3.30;3.00;;;;;;;7.59;nan;98931.06;5026845;28;20244;-75
2022/04/20 02:25:54;;;;;;;3.43;3.03;;;;;;;7.60;nan;98929.28;5006245;28;20285;-78
2022/04/20 02:28:21;;;;;;;2.67;2.35;;;;;;;7.54;nan;98926.13;5026765;28;20287;-75
2022/04/20 02:30:46;;;;;;;3.57;2.73;;;;;;;7.52;nan;98933.22;5027366;28;20689;-75
2022/04/20 02:33:15;;;;;;;2.92;2.63;;;;;;;7.55;nan;98934.81;5025919;28;20312;-76
2022/04/20 02:35:41;;;;;;;5.03;3.27;;;;;;;7.55;nan;98932.19;5026389;28;20426;-76
2022/04/20 02:38:11;;;;;;;3.00;2.50;;;;;;;7.53;nan;98932.28;5027883;28;20920;-78
2022/04/20 02:40:38;;;;;;;5.55;3.05;;;;;;;7.52;nan;98929.75;5026173;28;20202;-76
2022/04/20 02:43:04;;;;;;;3.22;2.70;;;;;;;7.49;nan;98929.97;5053112;28;20710;-76
2022/04/20 02:45:30;;;;;;;3.72;2.78;;;;;;;7.44;nan;98921.56;5026259;28;20683;-76
2022/04/20 02:47:55;;;;;;;2.67;2.40;;;;;;;7.46;nan;98931.00;5026229;28;20210;-75
2022/04/20 02:50:21;;;;;;;2.67;2.43;;;;;;;7.47;nan;98924.81;5027134;28;20210;-76
2022/04/20 02:52:46;;;;;;;6.30;2.63;;;;;;;7.42;nan;98926.03;5029716;28;20502;-76
2022/04/20 02:55:12;;;;;;;3.87;2.47;;;;;;;7.41;nan;98932.22;5029563;28;20317;-76
2022/04/20 02:57:38;;;;;;;4.95;3.20;;;;;;;7.38;nan;98928.00;5028948;28;20276;-76
2022/04/20 03:00:05;;;;;;;4.23;2.77;;;;;;;7.37;nan;98925.47;5031191;28;20190;-76
2022/04/20 03:02:33;;;;;;;3.95;3.10;;;;;;;7.39;nan;98928.84;5027941;28;20473;-76
2022/04/20 03:04:59;;;;;;;3.30;3.00;;;;;;;7.37;nan;98934.19;5030382;28;20210;-76
2022/04/20 03:07:24;;;;;;;3.20;2.90;;;;;;;7.40;nan;98931.38;5031382;28;20202;-76
2022/04/20 03:09:53;;;;;;;4.25;3.63;;;;;;;7.40;nan;98930.50;5030998;28;20382;-76
2022/04/20 03:12:21;;;;;;;3.55;3.10;;;;;;;7.36;nan;98931.66;5045799;28;20237;-76
2022/04/20 03:14:54;;;;;;;4.20;3.38;;;;;;;7.28;nan;98932.94;5030812;28;20198;-76
2022/04/20 03:17:24;;;;;;;4.07;2.92;;;;;;;7.15;nan;98937.22;5028246;28;20267;-76
2022/04/20 03:19:51;;;;;;;4.22;3.28;;;;;;;7.07;nan;98947.28;5052295;28;20766;-76
2022/04/20 03:22:17;;;;;;;3.58;2.55;;;;;;;7.01;nan;98948.50;5026834;28;20516;-77
2022/04/20 03:24:43;;;;;;;4.10;3.40;;;;;;;6.95;nan;98951.50;5029588;28;20255;-76
2022/04/20 03:27:11;;;;;;;3.30;3.05;;;;;;;6.95;nan;98948.03;5030943;28;20456;-77
2022/04/20 03:29:46;;;;;;;3.67;2.90;;;;;;;6.95;nan;98948.88;5029469;28;20202;-77
2022/04/20 03:32:15;;;;;;;3.80;2.80;;;;;;;6.97;nan;98949.63;5030247;28;20264;-78
2022/04/20 03:34:41;;;;;;;4.82;2.97;;;;;;;6.98;nan;98943.47;5031712;28;20256;-75
2022/04/20 03:37:09;;;;;;;4.67;3.30;;;;;;;7.00;nan;98946.00;5029645;28;20214;-76
2022/04/20 03:39:39;;;;;;;3.35;2.80;;;;;;;7.05;nan;98936.13;5029017;28;20433;-76
2022/04/20 03:42:05;;;;;;;3.35;3.03;;;;;;;7.09;nan;98945.44;5030996;28;20329;-77
2022/04/20 03:44:31;;;;;;;3.33;2.50;;;;;;;7.12;nan;98950.47;5029629;28;20206;-76
2022/04/20 03:46:57;;;;;;;3.10;2.75;;;;;;;7.16;nan;98951.16;5054785;28;20453;-76
2022/04/20 03:49:23;;;;;;;3.13;2.87;;;;;;;7.18;nan;98946.66;5030528;28;20725;-76
2022/04/20 03:51:48;;;;;;;3.73;3.03;;;;;;;7.20;nan;98937.78;5030677;28;20476;-75
2022/04/20 03:54:16;;;;;;;3.17;2.58;;;;;;;7.23;nan;98940.22;5054689;28;20268;-76
2022/04/20 03:59:27;;;;;;;3.13;2.25;;;;;;;7.21;nan;98938.63;5029829;28;20598;-76
2022/04/20 04:01:53;;;;;;;4.00;3.50;;;;;;;7.20;nan;98939.56;5028958;28;20481;-76
2022/04/20 04:04:20;;;;;;;2.40;2.20;;;;;;;7.21;nan;98943.84;5029330;28;20273;-76
2022/04/20 04:06:47;;;;;;;2.92;2.63;;;;;;;7.20;nan;98940.41;5029486;28;20211;-78
2022/04/20 04:09:13;;;;;;;3.83;2.47;;;;;;;7.20;nan;98945.63;5029121;28;20277;-76
2022/04/20 04:11:39;;;;;;;2.43;2.23;;;;;;;7.19;nan;98945.75;5029099;28;20225;-76
2022/04/20 04:14:05;;;;;;;2.53;1.83;;;;;;;7.20;nan;98947.41;5029633;28;20464;-76
2022/04/20 04:16:36;;;;;;;6.40;2.47;;;;;;;7.21;nan;98949.06;5027891;28;20217;-77
2022/04/20 04:19:05;;;;;;;2.58;2.38;;;;;;;7.22;nan;98951.59;5044276;28;20477;-76
2022/04/20 04:21:31;;;;;;;3.05;2.00;;;;;;;7.22;nan;98953.38;5029557;28;20209;-76
2022/04/20 04:23:58;;;;;;;3.95;2.17;;;;;;;7.23;nan;98958.50;5028917;28;20226;-76
2022/04/20 04:26:31;;;;;;;3.13;2.55;;;;;;;7.24;nan;98954.97;5029038;28;20580;-77
2022/04/20 04:28:58;;;;;;;2.53;2.33;;;;;;;7.24;nan;98961.97;5029085;28;20206;-76
2022/04/20 04:31:24;;;;;;;6.35;2.15;;;;;;;7.23;nan;98961.13;5028527;28;20926;-79
2022/04/20 04:33:52;;;;;;;9.65;2.80;;;;;;;7.23;nan;98955.06;5027994;28;20319;-77
2022/04/20 04:36:18;;;;;;;2.13;1.97;;;;;;;7.19;nan;98953.56;5023775;28;20312;-76
2022/04/20 04:38:52;;;;;;;3.15;2.50;;;;;;;7.14;nan;98963.44;5023715;28;20320;-76
2022/04/20 04:41:22;;;;;;;3.10;2.63;;;;;;;7.09;nan;98959.34;5023284;28;20891;-76
2022/04/20 04:43:48;;;;;;;3.93;2.20;;;;;;;7.07;nan;98965.56;5024899;28;20317;-76
2022/04/20 04:49:12;;;;;;;2.47;2.28;;;;;;;7.12;nan;98975.75;5023582;28;20552;-76
2022/04/20 04:51:37;;;;;;;4.50;4.20;;;;;;;7.14;nan;98971.28;5055057;28;20225;-76
2022/04/20 04:54:03;;;;;;;2.43;2.23;;;;;;;7.18;nan;98972.78;5023863;28;20287;-76
2022/04/20 04:56:31;;;;;;;4.40;2.85;;;;;;;7.22;nan;98971.66;5023887;28;20294;-76
2022/04/20 04:58:56;;;;;;;4.23;2.77;;;;;;;7.27;nan;98975.69;5023559;28;20301;-76
2022/04/20 05:01:23;;;;;;;5.57;2.63;;;;;;;7.30;nan;98975.50;5022560;28;20981;-76
2022/04/20 05:03:50;;;;;;;3.65;2.70;;;;;;;7.37;nan;98975.13;5023142;28;20253;-76
2022/04/20 05:06:17;;;;;;;2.92;2.28;;;;;;;7.52;nan;98976.81;5023300;28;20247;-78
2022/04/20 05:09:03;;;;;;;2.97;2.65;;;;;;;7.83;nan;98977.50;5024049;28;20218;-76
2022/04/20 05:11:29;;;;;;;3.13;2.35;;;;;;;8.04;nan;98983.19;5022688;28;20225;-75
2022/04/20 05:13:55;;;;;;;3.10;2.30;;;;;;;8.15;nan;98980.72;5022642;28;20320;-78
2022/04/20 05:16:22;;;;;;;4.97;2.78;;;;;;;8.20;nan;98976.88;5023302;28;20232;-77
2022/04/20 05:18:47;;;;;;;5.13;2.80;;;;;;;8.25;nan;98979.19;5044001;28;20245;-76
2022/04/20 05:21:13;;;;;;;2.93;2.23;;;;;;;8.34;nan;98977.75;5024971;28;20456;-75
2022/04/20 05:23:39;;;;;;;5.78;3.50;;;;;;;8.41;nan;98979.09;5023305;28;20226;-75
2022/04/20 05:26:05;;;;;;;4.40;3.20;;;;;;;8.49;nan;98982.03;5023484;28;20202;-78
2022/04/20 05:28:39;;;;;;;3.28;2.20;;;;;;;8.52;nan;98984.47;5026063;28;20479;-75
2022/04/20 05:31:06;;;;;;;7.80;3.25;;;;;;;8.61;nan;98983.88;5027931;28;20245;-75
2022/04/20 05:33:34;;;;;;;2.50;2.30;;;;;;;8.70;nan;98986.81;5021866;28;20327;-75
2022/04/20 05:36:00;;;;;;;5.93;2.60;;;;;;;8.76;nan;98989.03;5052432;28;20206;-78
2022/04/20 05:41:39;;;;;;;4.20;1.90;;;;;;;8.80;nan;98983.50;5039227;28;20304;-76
2022/04/20 05:44:06;;;;;;;3.83;2.53;;;;;;;8.80;nan;98985.25;5022301;28;20219;-75
2022/04/20 05:46:33;;;;;;;5.80;3.03;;;;;;;8.81;nan;98987.78;5022166;28;20451;-77
2022/04/20 05:49:06;;;;;;;5.60;3.78;;;;;;;8.83;nan;98982.44;5022077;28;20197;-77
2022/04/20 05:51:32;;;;;;;3.03;2.77;;;;;;;8.78;nan;98992.41;5022621;28;20266;-76
2022/04/20 05:53:58;;;;;;;7.20;3.37;;;;;;;8.76;nan;98982.00;5021755;28;20242;-75
2022/04/20 05:56:24;;;;;;;5.25;2.78;;;;;;;8.82;nan;98986.00;5022126;28;20225;-77
2022/04/20 05:58:52;;;;;;;3.27;2.97;;;;;;;8.85;nan;98988.41;5022088;28;20280;-75
2022/04/20 06:01:22;;;;;;;4.40;3.67;;;;;;;8.88;nan;98990.81;5042278;28;20213;-75
2022/04/20 06:04:07;;;;;;;3.00;2.72;;;;;;;8.99;nan;98992.72;5021725;28;20313;-75
2022/04/20 06:06:33;;;;;;;3.87;2.90;;;;;;;9.22;nan;98983.34;5023806;28;20301;-75
2022/04/20 06:09:05;;;;;;;4.30;3.10;;;;;;;9.55;nan;98981.94;5022369;28;20237;-75
2022/04/20 06:12:09;;;;;;;3.60;3.30;;;;;;;10.09;nan;98989.50;4962031;28;20242;-75
2022/04/20 06:14:54;;;;;;;4.22;3.50;;;;;;;10.58;nan;98975.47;4961240;28;20980;-75
2022/04/20 06:17:38;;;;;;;4.10;3.03;;;;;;;10.98;nan;98980.38;5005744;28;20228;-74
2022/04/20 06:20:05;;;;;;;6.05;3.60;;;;;;;11.29;nan;98971.84;5022230;28;20215;-75
2022/04/20 06:22:36;;;;;;;5.60;2.92;;;;;;;11.68;nan;98976.75;5023328;28;20229;-74
2022/04/20 06:25:19;;;;;;;3.50;3.10;;;;;;;12.23;nan;98976.81;5026519;28;20205;-75
2022/04/20 06:28:25;;;;;;;3.88;3.58;;;;;;;12.81;nan;98967.63;4947212;29;20354;-74
2022/04/20 06:31:07;;;;;;;2.97;2.67;;;;;;;13.12;nan;98969.50;4947067;29;20291;-75
2022/04/20 06:33:38;;;;;;;40.00;37.40;;;;;;;13.28;nan;98962.84;4996462;28;20240;-75
2022/04/20 06:36:11;;;;;;;6.05;5.43;;;;;;;13.52;nan;98958.22;5025367;28;20289;-75
2022/04/20 06:38:37;;;;;;;3.53;2.93;;;;;;;13.82;nan;98966.13;5027196;28;20305;-75
2022/04/20 06:41:08;;;;;;;3.78;3.30;;;;;;;14.06;nan;98959.66;5025579;28;20206;-76
2022/04/20 06:43:52;;;;;;;3.67;2.70;;;;;;;14.31;nan;98968.88;5026461;28;20221;-75
2022/04/20 06:46:37;;;;;;;3.10;2.85;;;;;;;14.59;nan;98962.00;5026551;28;20354;-75
2022/04/20 06:49:22;;;;;;;3.42;3.13;;;;;;;14.66;nan;98957.78;5016102;28;20349;-76
2022/04/20 07:00:25;;;;;;;6.63;3.88;;;;;;;13.03;nan;98955.31;5025870;28;20202;-76
2022/04/20 07:03:12;;;;;;;4.35;3.72;;;;;;;12.60;nan;98953.59;5024883;28;21478;-74
2022/04/20 07:05:57;;;;;;;4.30;3.47;;;;;;;12.25;nan;98954.69;5027148;28;20244;-74
2022/04/20 07:08:26;;;;;;;5.07;3.42;;;;;;;11.98;nan;98957.75;5026719;28;20580;-75
2022/04/20 07:11:03;;;;;;;4.50;3.50;;;;;;;11.83;nan;98958.94;5024604;28;20689;-75
2022/04/20 07:13:29;;;;;;;4.93;3.50;;;;;;;11.79;nan;98952.25;5024775;28;20530;-76
2022/04/20 07:15:55;;;;;;;3.20;2.90;;;;;;;12.14;nan;98946.81;5025376;28;20301;-75
2022/04/20 07:18:21;;;;;;;3.20;2.90;;;;;;;12.80;nan;98938.78;5024403;28;20206;-75
2022/04/20 07:21:19;;;;;;;4.50;3.70;;;;;;;13.60;nan;98947.84;5021137;28;20931;-75
2022/04/20 07:23:50;;;;;;;3.88;3.35;;;;;;;14.19;nan;98938.28;5025679;28;20237;-75
2022/04/20 07:26:34;;;;;;;4.10;3.70;;;;;;;14.81;nan;98932.59;5026857;28;20214;-74
2022/04/20 07:29:05;;;;;;;4.18;3.22;;;;;;;15.30;nan;98936.97;5025930;28;20507;-76
2022/04/20 07:31:56;;;;;;;4.45;3.25;;;;;;;15.88;nan;98932.28;5024277;28;20484;-75
2022/04/20 07:34:40;;;;;;;4.75;3.70;;;;;;;16.38;nan;98931.81;5025706;28;20226;-75
2022/04/20 07:37:24;;;;;;;4.25;3.88;;;;;;;16.85;nan;98921.94;5026238;28;20687;-74
2022/04/20 07:40:31;;;;;;;3.50;3.20;;;;;;;17.31;nan;98919.91;4944808;29;20231;-75
2022/04/20 07:43:15;;;;;;;3.93;3.20;;;;;;;17.45;nan;98924.66;4929426;29;20489;-75
2022/04/20 07:46:00;;;;;;;3.87;2.63;;;;;;;17.54;nan;98933.50;5001954;28;20551;-75
2022/04/20 07:48:50;;;;;;;3.43;3.13;;;;;;;17.67;nan;98928.56;5053696;28;20457;-75
2022/04/20 07:51:26;;;;;;;5.40;3.00;;;;;;;17.94;nan;98932.03;5025689;28;20488;-76
2022/04/20 07:53:59;;;;;;;4.53;2.90;;;;;;;18.23;nan;98926.31;5024492;28;20488;-76
2022/04/20 07:56:38;;;;;;;3.03;2.73;;;;;;;18.53;nan;98924.84;5024010;28;20497;-75
2022/04/20 07:59:22;;;;;;;3.63;3.27;;;;;;;18.69;nan;98924.84;5025976;28;20515;-77
2022/04/20 08:02:14;;;;;;;4.55;3.47;;;;;;;18.90;nan;98929.69;5021667;28;20668;-75
2022/04/20 08:05:06;;;;;;;3.07;2.77;;;;;;;19.11;nan;98921.16;5003213;28;20522;-75
2022/04/20 08:07:32;;;;;;;3.37;3.07;;;;;;;19.27;nan;98920.31;5024118;28;20906;-75
2022/04/20 08:09:57;;;;;;;3.10;2.80;;;;;;;19.38;nan;98922.59;5023663;28;20552;-76
2022/04/20 08:12:24;;;;;;;3.20;3.00;;;;;;;19.42;nan;98917.78;5024486;28;20923;-75
2022/04/20 08:14:51;;;;;;;4.10;3.20;;;;;;;19.40;nan;98920.59;5024514;28;20582;-75
2022/04/20 08:17:21;;;;;;;4.90;3.30;;;;;;;19.40;nan;98920.59;5024114;28;20500;-75
2022/04/20 08:20:07;;;;;;;3.30;3.00;;;;;;;19.44;nan;98919.28;5024980;28;20596;-75
2022/04/20 08:22:44;;;;;;;4.30;2.63;;;;;;;19.72;nan;98920.69;5023689;28;20469;-75
2022/04/20 08:25:12;;;;;;;3.90;2.10;;;;;;;19.73;nan;98909.84;5025390;28;20460;-76
2022/04/20 08:27:38;;;;;;;3.67;2.30;;;;;;;19.72;nan;98910.03;5025406;28;20503;-75
2022/04/20 08:30:05;;;;;;;3.63;2.70;;;;;;;19.92;nan;98908.59;5024594;28;20449;-75
2022/04/20 08:32:31;;;;;;;3.63;2.47;;;;;;;19.91;nan;98914.13;5025208;28;20506;-77
2022/04/20 08:34:56;;;;;;;3.70;2.27;;;;;;;19.95;nan;98918.09;5025067;28;20555;-76
2022/04/20 08:37:22;;;;;;;2.77;2.57;;;;;;;19.93;nan;98910.28;5023639;28;20210;-75
2022/04/20 08:39:47;;;;;;;2.87;2.40;;;;;;;19.97;nan;98906.25;5024020;28;20297;-75
2022/04/20 08:42:16;;;;;;;2.70;2.50;;;;;;;19.99;nan;98906.09;5024179;28;20489;-75
2022/04/20 08:44:47;;;;;;;14.83;12.53;;;;;;;20.06;nan;98899.88;5024325;28;20215;-74
2022/04/20 08:47:18;;;;;;;2.70;2.43;;;;;;;20.06;nan;98905.22;5025376;28;20639;-74
2022/04/20 08:49:45;;;;;;;2.73;2.50;;;;;;;19.84;nan;98901.47;5024461;28;20454;-75
2022/04/20 08:54:57;;;;;;;2.83;2.63;;;;;;;19.85;nan;98897.81;5025125;28;20465;-75
2022/04/20 08:57:29;;;;;;;113.20;104.63;;;;;;;19.77;nan;98899.69;5069045;22;21003;-91
2022/04/20 09:00:17;;;;;;;2.90;2.40;;;;;;;19.76;nan;98895.34;5019614;28;20454;-90
2022/04/20 09:02:52;;;;;;;12.80;11.57;;;;;;;19.61;nan;98903.22;5021772;28;20790;-90
2022/04/20 09:05:30;;;;;;;1.93;1.77;;;;;;;19.46;nan;98895.13;5021505;28;20471;-90
2022/04/20 09:07:56;;;;;;;3.20;2.30;;;;;;;19.29;nan;98897.00;5020882;28;20480;-91
2022/04/20 09:10:35;;;;;;;;;;;;;;;;;;;;;
2022/04/20 09:13:09;;;;;;;2.40;2.20;;;;;;;19.21;nan;98892.53;5032110;28;20857;-91
2022/04/20 09:15:38;;;;;;;3.03;2.40;;;;;;;18.89;nan;98884.63;5034946;28;20457;-90
2022/04/20 09:18:14;;;;;;;2.77;2.10;;;;;;;18.62;nan;98881.28;5026882;28;21001;-91
2022/04/20 09:20:50;;;;;;;2.17;1.97;;;;;;;18.73;nan;98875.59;5025059;28;20514;-90
2022/04/20 09:23:16;;;;;;;2.80;2.33;;;;;;;18.79;nan;98877.66;5022630;28;20547;-89
2022/04/20 09:26:05;;;;;;;;;;;;;;;;;;;;;
2022/04/20 09:29:55;;;;;;;2.40;1.77;;;;;;;18.95;nan;98876.78;5019438;28;20210;-91
2022/04/20 09:33:25;;;;;;;3.63;2.00;;;;;;;19.01;nan;98867.31;5004594;28;20481;-91
2022/04/20 09:37:01;;;;;;;3.37;1.83;;;;;;;19.32;nan;98869.22;4933072;29;20507;-92
2022/04/20 09:51:41;;;;;;;2.40;1.80;;;;;;;18.90;nan;98863.16;4838065;29;20472;-91
2022/04/20 10:01:34;;;;;;;60.97;54.47;;;;;;;19.13;nan;98852.63;4966146;28;20443;-90
2022/04/20 10:04:08;;;;;;;4.13;3.77;;;;;;;19.24;nan;98856.75;4982309;28;20542;-87
2022/04/20 10:06:41;;;;;;;2.40;1.93;;;;;;;19.35;nan;98855.53;4980180;28;20455;-89
2022/04/20 10:09:12;;;;;;;4.00;2.20;;;;;;;19.44;nan;98841.19;4963803;28;20930;-92
2022/04/20 10:11:48;;;;;;;2.53;1.73;;;;;;;19.56;nan;98842.47;4976879;28;20475;-89
2022/04/20 10:17:15;;;;;;;15.87;15.00;;;;;;;19.56;nan;98837.16;4974746;28;20506;-89
2022/04/20 10:19:48;;;;;;;1.73;1.57;;;;;;;19.63;nan;98832.78;5021127;28;20447;-89
2022/04/20 10:22:32;;;;;;;1.90;1.70;;;;;;;19.73;nan;98832.59;5040333;28;20445;-89
2022/04/20 10:25:01;;;;;;;2.20;1.80;;;;;;;19.84;nan;98840.16;5041368;28;20450;-89
2022/04/20 10:28:00;;;;;;;3.60;2.00;;;;;;;19.75;nan;98835.09;5038275;28;20558;-89
2022/04/20 10:30:50;;;;;;;42.13;31.07;;;;;;;19.59;nan;98831.47;5042511;28;20436;-89
2022/04/20 10:33:23;;;;;;;1.60;1.50;;;;;;;19.41;nan;98825.56;5038180;28;20488;-91
2022/04/20 10:36:31;;;;;;;1.83;1.63;;;;;;;19.46;nan;98820.53;5039036;28;20734;-89
2022/04/20 10:39:30;;;;;;;2.27;1.70;;;;;;;19.43;nan;98824.38;5035535;28;20954;-90
2022/04/20 10:42:11;;;;;;;148.10;132.67;;;;;;;19.37;nan;98822.41;5039696;28;20464;-92
2022/04/20 10:45:00;;;;;;;1.63;1.53;;;;;;;19.33;nan;98826.41;5040614;28;20460;-90
2022/04/20 10:47:40;;;;;;;1.87;1.40;;;;;;;19.35;nan;98815.59;5042098;28;20565;-90
2022/04/20 10:50:20;;;;;;;2.50;1.77;;;;;;;19.27;nan;98815.63;5042457;28;20485;-90
2022/04/20 10:55:24;;;;;;;2.53;1.33;;;;;;;19.38;nan;98817.91;5040142;28;21104;-91
2022/04/20 10:57:54;;;;;;;1.57;1.47;;;;;;;19.35;nan;98816.44;5040332;28;20482;-90
2022/04/20 11:00:50;;;;;;;3.27;1.70;;;;;;;19.31;nan;98808.94;5045182;28;20452;-90
2022/04/20 11:03:17;;;;;;;3.73;2.20;;;;;;;19.30;nan;98810.78;5050960;28;20495;-89
2022/04/20 11:05:53;;;;;;;4.50;2.80;;;;;;;19.20;nan;98805.69;5046354;28;20758;-90
2022/04/20 11:08:36;;;;;;;5.80;2.67;;;;;;;19.09;nan;98794.56;5053944;28;20490;-90
2022/04/20 11:20:27;;;;;;;2.00;1.80;;;;;;;19.01;nan;98784.81;5050425;28;20554;-90
2022/04/20 11:23:05;;;;;;;2.97;2.20;;;;;;;18.94;nan;98781.16;5061034;28;20518;-90
2022/04/20 11:25:31;;;;;;;3.10;2.00;;;;;;;18.79;nan;98791.66;5053642;28;20820;-90
2022/04/20 11:28:08;;;;;;;1.97;1.70;;;;;;;18.61;nan;98783.88;5042632;28;20529;-90
2022/04/20 11:30:44;;;;;;;1.53;1.43;;;;;;;18.59;nan;98783.19;5043646;28;20457;-90
2022/04/20 11:33:11;;;;;;;1.83;1.73;;;;;;;18.54;nan;98775.72;5048473;28;20477;-91
2022/04/20 11:35:56;;;;;;;2.23;1.90;;;;;;;18.53;nan;98767.94;5073168;28;20448;-90
2022/04/20 11:38:37;;;;;;;2.03;1.77;;;;;;;18.58;nan;98773.56;5047370;28;20675;-91
2022/04/20 11:41:12;;;;;;;1.90;1.80;;;;;;;18.61;nan;98759.94;5043388;28;20449;-90
2022/04/20 11:43:41;;;;;;;2.10;1.60;;;;;;;18.68;nan;98763.56;5049551;28;20452;-92
2022/04/20 11:46:14;;;;;;;2.37;1.73;;;;;;;18.71;nan;98765.91;5052925;28;20473;-91
2022/04/20 11:49:09;;;;;;;2.50;2.27;;;;;;;18.77;nan;98759.91;5059186;28;20456;-90
2022/04/20 11:51:45;;;;;;;4.10;2.00;;;;;;;18.84;nan;98773.34;5062615;28;20833;-91
2022/04/20 11:54:18;;;;;;;2.27;2.00;;;;;;;18.93;nan;98763.50;5052675;28;20487;-92
2022/04/20 11:57:06;;;;;;;3.80;1.67;;;;;;;18.90;nan;98756.72;5043008;28;20465;-90
2022/04/20 11:59:33;;;;;;;1.93;1.63;;;;;;;18.82;nan;98766.53;5046458;28;20497;-92
2022/04/20 12:02:02;;;;;;;3.90;2.20;;;;;;;18.74;nan;98760.25;5046177;28;20474;-91
2022/04/20 12:04:33;;;;;;;230.38;151.93;;;;;;;18.67;nan;98759.25;5047431;28;20454;-91
2022/04/20 12:07:00;;;;;;;22.50;17.97;;;;;;;18.63;nan;98754.44;5046814;28;20569;-89
2022/04/20 12:09:32;;;;;;;54.63;39.90;;;;;;;18.54;nan;98748.31;5046480;28;20761;-89
2022/04/20 12:12:00;;;;;;;4.20;2.17;;;;;;;18.48;nan;98741.00;5044977;28;20476;-89
2022/04/20 12:14:46;;;;;;;54.90;45.47;;;;;;;18.53;nan;98755.47;5045314;28;20879;-92
2022/04/20 12:17:24;;;;;;;6.17;5.67;;;;;;;18.63;nan;98762.41;5043855;28;20753;-90
2022/04/20 12:19:56;;;;;;;2.50;2.30;;;;;;;18.65;nan;98747.94;5042423;28;20452;-91
2022/04/20 12:22:30;;;;;;;2.50;1.90;;;;;;;18.58;nan;98747.81;5043887;28;20434;-90
2022/04/20 12:25:07;;;;;;;3.00;2.63;;;;;;;18.50;nan;98760.28;5046578;28;20460;-90
2022/04/20 12:28:35;;;;;;;2.20;2.00;;;;;;;18.45;nan;98757.31;5056335;28;20212;-90
2022/04/20 12:31:05;;;;;;;1.53;1.40;;;;;;;18.51;nan;98749.47;5050332;28;20451;-90
2022/04/20 12:33:34;;;;;;;2.57;1.80;;;;;;;18.69;nan;98743.13;5051649;28;20478;-89
2022/04/20 12:36:13;;;;;;;2.13;1.93;;;;;;;18.68;nan;98750.25;5052893;28;20453;-91
2022/04/20 12:38:47;;;;;;;3.50;1.90;;;;;;;18.58;nan;98744.31;5067773;28;20507;-91
2022/04/20 12:41:35;;;;;;;4.80;1.70;;;;;;;18.59;nan;98743.31;5066981;28;20470;-91
2022/04/20 12:44:37;;;;;;;2.60;1.30;;;;;;;18.60;nan;98744.94;5063893;28;20460;-94
2022/04/20 12:47:08;;;;;;;1.90;1.67;;;;;;;18.56;nan;98731.19;5067231;28;20469;-90
2022/04/20 12:49:34;;;;;;;2.53;1.50;;;;;;;18.60;nan;98736.16;5066476;28;20475;-92
2022/04/20 12:52:09;;;;;;;3.03;1.97;;;;;;;18.76;nan;98728.16;5068024;28;20487;-91
2022/04/20 12:54:35;;;;;;;3.47;3.07;;;;;;;18.89;nan;98738.25;5067099;28;20469;-90
2022/04/20 13:02:30;;;;;;;2.87;2.00;;;;;;;18.66;nan;98723.03;5067083;28;20475;-91
2022/04/20 13:04:58;;;;;;;5.63;2.00;;;;;;;18.63;nan;98723.34;5065962;28;20455;-92
2022/04/20 13:07:26;;;;;;;3.20;2.30;;;;;;;18.67;nan;98722.00;5065759;28;20206;-93
2022/04/20 13:09:52;;;;;;;3.80;2.23;;;;;;;18.65;nan;98720.50;5065618;28;20778;-90
2022/04/20 13:12:19;;;;;;;2.13;1.70;;;;;;;18.62;nan;98727.00;5067186;28;20221;-92
2022/04/20 13:14:45;;;;;;;4.50;2.07;;;;;;;18.69;nan;98721.84;5066943;28;20216;-91
2022/04/20 13:17:11;;;;;;;2.63;1.87;;;;;;;18.79;nan;98723.34;5058057;28;20479;-91
2022/04/20 13:19:39;;;;;;;2.90;2.30;;;;;;;18.89;nan;98728.44;5042829;28;20833;-90
2022/04/20 13:22:08;;;;;;;2.43;2.23;;;;;;;18.92;nan;98733.41;5045493;28;20926;-89
2022/04/20 13:30:05;;;;;;;3.33;2.27;;;;;;;18.92;nan;98713.97;5044179;28;20464;-90
2022/04/20 13:32:33;;;;;;;5.50;1.80;;;;;;;18.87;nan;98718.97;5044123;28;20495;-91
2022/04/20 13:34:59;;;;;;;3.00;1.87;;;;;;;18.85;nan;98720.97;5043441;28;20466;-89